PGUM/GUM METAR and TAF weather

Enter ICAO airport designator
Station Type Date Time Source
PGUM METAR 2019/06/26 19:54 UTC NOAA

PGUM 261954Z 09006KT 10SM FEW016 SCT025 28/24 A2984 RMK AO2 SLP097 T02780239


Station Type Date Time Source
PGUM Decoded METAR 2019/06/26 19:54 UTC NOAA

Agana, Guam International Airport, GU, United States (PGUM) 13-29N 144-48E
Jun 26, 2019 - 03:54 PM EDT / 2019.06.26 1954 UTC
Wind: from the E (090 degrees) at 7 MPH (6 KT):0
Visibility: 10 mile(s):0
Sky conditions: partly cloudy
Temperature: 82.0 F (27.8 C)
Dew Point: 75.0 F (23.9 C)
Relative Humidity: 79%
Pressure (altimeter): 29.84 in. Hg (1010 hPa)
ob: PGUM 261954Z 09006KT 10SM FEW016 SCT025 28/24 A2984 RMK AO2 SLP097 T02780239
cycle: 20

Station Type Date Time Source
PGUM TAF 2019/06/26 18:39 UTC NOAA

TAF PGUM 261728Z 2618/2724 11007KT P6SM FEW020 SCT050
FM262300 11011G18KT P6SM FEW020 SCT050
FM270800 10008KT P6SM VCSH SCT020 SCT050

Example: see airport list